sensor_id;sensor_type;location;lat;lon;timestamp;pressure;altitude;pressure_sealevel;temperature;humidity
60019;BME280;45870;42.528;26.740;2023-04-25T00:01:04;99042.59;;;18.67;46.37
60019;BME280;45870;42.528;26.740;2023-04-25T00:03:31;99036.09;;;19.31;44.91
60019;BME280;45870;42.528;26.740;2023-04-25T00:05:58;99032.88;;;19.65;44.18
60019;BME280;45870;42.528;26.740;2023-04-25T00:08:27;99032.50;;;19.58;44.08
60019;BME280;45870;42.528;26.740;2023-04-25T00:10:53;99029.94;;;19.61;43.74
60019;BME280;45870;42.528;26.740;2023-04-25T00:13:19;99026.34;;;19.25;44.64
60019;BME280;45870;42.528;26.740;2023-04-25T00:15:47;99028.09;;;19.34;44.54
60019;BME280;45870;42.528;26.740;2023-04-25T00:18:14;99028.47;;;19.55;43.71
60019;BME280;45870;42.528;26.740;2023-04-25T00:20:40;99025.00;;;19.36;44.42
60019;BME280;45870;42.528;26.740;2023-04-25T00:23:15;99024.94;;;19.41;44.17
60019;BME280;45870;42.528;26.740;2023-04-25T00:25:44;99019.09;;;18.79;45.46
60019;BME280;45870;42.528;26.740;2023-04-25T00:28:11;99022.44;;;19.17;44.33
60019;BME280;45870;42.528;26.740;2023-04-25T00:30:36;99012.97;;;18.28;45.92
60019;BME280;45870;42.528;26.740;2023-04-25T00:33:02;99022.94;;;18.51;44.94
60019;BME280;45870;42.528;26.740;2023-04-25T00:35:28;99011.03;;;18.15;46.00
60019;BME280;45870;42.528;26.740;2023-04-25T00:37:54;99015.28;;;18.34;45.92
60019;BME280;45870;42.528;26.740;2023-04-25T00:40:20;99010.50;;;18.59;44.48
60019;BME280;45870;42.528;26.740;2023-04-25T00:42:46;99005.44;;;18.66;44.16
60019;BME280;45870;42.528;26.740;2023-04-25T00:45:13;98981.47;;;18.17;44.45
60019;BME280;45870;42.528;26.740;2023-04-25T00:47:40;98987.34;;;17.78;45.68
60019;BME280;45870;42.528;26.740;2023-04-25T00:50:07;98995.34;;;18.20;45.64
60019;BME280;45870;42.528;26.740;2023-04-25T00:52:33;98998.00;;;18.39;45.12
60019;BME280;45870;42.528;26.740;2023-04-25T00:54:59;98998.09;;;18.34;45.06
60019;BME280;45870;42.528;26.740;2023-04-25T00:57:25;98994.00;;;17.72;46.23
60019;BME280;45870;42.528;26.740;2023-04-25T00:59:52;98986.34;;;17.87;46.66
60019;BME280;45870;42.528;26.740;2023-04-25T01:02:19;98950.78;;;17.60;46.48
60019;BME280;45870;42.528;26.740;2023-04-25T01:04:47;98974.88;;;18.04;46.25
60019;BME280;45870;42.528;26.740;2023-04-25T01:07:13;98912.38;;;18.30;45.04
60019;BME280;45870;42.528;26.740;2023-04-25T01:09:39;98976.28;;;18.75;45.10
60019;BME280;45870;42.528;26.740;2023-04-25T01:12:05;98969.59;;;18.67;44.81
60019;BME280;45870;42.528;26.740;2023-04-25T01:14:31;98972.84;;;18.56;45.08
60019;BME280;45870;42.528;26.740;2023-04-25T01:16:57;98973.72;;;18.37;44.90
60019;BME280;45870;42.528;26.740;2023-04-25T01:19:23;98944.94;;;18.13;45.98
60019;BME280;45870;42.528;26.740;2023-04-25T01:21:50;98959.34;;;18.45;44.68
60019;BME280;45870;42.528;26.740;2023-04-25T01:24:16;98944.84;;;17.53;46.56
60019;BME280;45870;42.528;26.740;2023-04-25T01:26:42;98897.06;;;17.23;45.57
60019;BME280;45870;42.528;26.740;2023-04-25T01:29:17;98957.06;;;17.93;45.28
60019;BME280;45870;42.528;26.740;2023-04-25T01:31:44;98916.13;;;18.07;43.87
60019;BME280;45870;42.528;26.740;2023-04-25T01:34:11;98948.06;;;17.60;45.00
60019;BME280;45870;42.528;26.740;2023-04-25T01:36:37;98941.59;;;18.02;44.23
60019;BME280;45870;42.528;26.740;2023-04-25T01:39:02;98935.28;;;16.99;46.19
60019;BME280;45870;42.528;26.740;2023-04-25T01:41:28;98941.69;;;16.47;47.16
60019;BME280;45870;42.528;26.740;2023-04-25T01:43:54;98919.09;;;16.23;48.08
60019;BME280;45870;42.528;26.740;2023-04-25T01:46:20;98871.78;;;17.18;44.69
60019;BME280;45870;42.528;26.740;2023-04-25T01:48:46;98929.63;;;17.52;44.60
60019;BME280;45870;42.528;26.740;2023-04-25T01:51:12;98930.88;;;18.19;42.92
60019;BME280;45870;42.528;26.740;2023-04-25T01:53:39;98923.03;;;17.72;44.03
60019;BME280;45870;42.528;26.740;2023-04-25T01:56:05;98926.91;;;17.98;43.17
60019;BME280;45870;42.528;26.740;2023-04-25T01:58:30;98909.28;;;17.44;43.91
60019;BME280;45870;42.528;26.740;2023-04-25T02:00:56;98912.94;;;17.35;44.91
60019;BME280;45870;42.528;26.740;2023-04-25T02:03:22;98905.06;;;16.59;46.75
60019;BME280;45870;42.528;26.740;2023-04-25T02:05:47;98907.84;;;17.47;44.36
60019;BME280;45870;42.528;26.740;2023-04-25T02:08:13;98901.09;;;17.44;45.04
60019;BME280;45870;42.528;26.740;2023-04-25T02:10:39;98885.22;;;15.58;47.96
60019;BME280;45870;42.528;26.740;2023-04-25T02:13:05;98897.44;;;16.98;45.51
60019;BME280;45870;42.528;26.740;2023-04-25T02:15:31;98899.28;;;16.84;45.51
60019;BME280;45870;42.528;26.740;2023-04-25T02:17:56;98888.66;;;16.82;45.12
60019;BME280;45870;42.528;26.740;2023-04-25T02:20:24;98892.50;;;17.19;44.44
60019;BME280;45870;42.528;26.740;2023-04-25T02:22:50;98895.38;;;16.90;44.73
60019;BME280;45870;42.528;26.740;2023-04-25T02:25:17;98885.59;;;17.40;44.08
60019;BME280;45870;42.528;26.740;2023-04-25T02:27:45;98885.16;;;17.52;43.19
60019;BME280;45870;42.528;26.740;2023-04-25T02:30:11;98891.13;;;17.03;44.50
60019;BME280;45870;42.528;26.740;2023-04-25T02:32:38;98832.34;;;17.10;43.46
60019;BME280;45870;42.528;26.740;2023-04-25T02:35:04;98880.47;;;17.71;43.02
60019;BME280;45870;42.528;26.740;2023-04-25T02:37:31;98856.69;;;17.39;42.77
60019;BME280;45870;42.528;26.740;2023-04-25T02:39:57;98884.84;;;17.02;43.54
60019;BME280;45870;42.528;26.740;2023-04-25T02:42:22;98884.75;;;17.07;43.53
60019;BME280;45870;42.528;26.740;2023-04-25T02:44:48;98904.28;;;16.77;45.31
60019;BME280;45870;42.528;26.740;2023-04-25T02:47:13;98909.88;;;16.85;45.10
60019;BME280;45870;42.528;26.740;2023-04-25T02:49:39;98913.34;;;16.91;44.81
60019;BME280;45870;42.528;26.740;2023-04-25T02:52:05;98900.56;;;17.61;43.39
60019;BME280;45870;42.528;26.740;2023-04-25T02:54:31;98902.97;;;17.63;43.00
60019;BME280;45870;42.528;26.740;2023-04-25T02:56:57;98904.06;;;17.29;43.02
60019;BME280;45870;42.528;26.740;2023-04-25T02:59:22;98902.38;;;17.15;43.20
60019;BME280;45870;42.528;26.740;2023-04-25T03:01:48;98851.25;;;16.88;43.57
60019;BME280;45870;42.528;26.740;2023-04-25T03:04:14;98894.75;;;16.08;45.67
60019;BME280;45870;42.528;26.740;2023-04-25T03:06:40;98899.97;;;13.75;52.18
60019;BME280;45870;42.528;26.740;2023-04-25T03:09:05;98904.88;;;16.26;46.86
60019;BME280;45870;42.528;26.740;2023-04-25T03:11:31;98891.41;;;14.86;49.65
60019;BME280;45870;42.528;26.740;2023-04-25T03:13:57;98896.03;;;16.63;45.10
60019;BME280;45870;42.528;26.740;2023-04-25T03:16:23;98845.75;;;16.74;44.26
60019;BME280;45870;42.528;26.740;2023-04-25T03:18:49;98893.31;;;15.29;46.76
60019;BME280;45870;42.528;26.740;2023-04-25T03:21:16;98883.28;;;16.11;45.85
60019;BME280;45870;42.528;26.740;2023-04-25T03:23:42;98907.50;;;16.79;44.53
60019;BME280;45870;42.528;26.740;2023-04-25T03:26:07;98906.13;;;17.00;44.40
60019;BME280;45870;42.528;26.740;2023-04-25T03:28:33;98904.34;;;15.09;47.86
60019;BME280;45870;42.528;26.740;2023-04-25T03:30:59;98900.59;;;16.86;43.63
60019;BME280;45870;42.528;26.740;2023-04-25T03:33:24;98900.22;;;17.30;41.97
60019;BME280;45870;42.528;26.740;2023-04-25T03:35:51;98893.63;;;17.50;41.79
60019;BME280;45870;42.528;26.740;2023-04-25T03:38:17;98907.34;;;17.45;43.15
60019;BME280;45870;42.528;26.740;2023-04-25T03:40:42;98905.91;;;17.34;43.22
60019;BME280;45870;42.528;26.740;2023-04-25T03:43:08;98905.25;;;17.23;42.75
60019;BME280;45870;42.528;26.740;2023-04-25T03:45:33;98907.88;;;17.79;43.58
60019;BME280;45870;42.528;26.740;2023-04-25T03:47:59;98882.69;;;20.33;39.47
60019;BME280;45870;42.528;26.740;2023-04-25T03:50:25;98902.84;;;21.11;36.66
60019;BME280;45870;42.528;26.740;2023-04-25T03:52:50;98906.59;;;22.51;34.47
60019;BME280;45870;42.528;26.740;2023-04-25T03:55:16;98894.50;;;22.44;33.99
60019;BME280;45870;42.528;26.740;2023-04-25T03:57:42;98912.34;;;22.67;34.08
60019;BME280;45870;42.528;26.740;2023-04-25T04:00:08;98906.03;;;22.96;33.59
60019;BME280;45870;42.528;26.740;2023-04-25T04:02:34;98912.69;;;24.95;30.64
60019;BME280;45870;42.528;26.740;2023-04-25T04:05:02;98912.63;;;27.31;28.07
60019;BME280;45870;42.528;26.740;2023-04-25T04:07:27;98917.97;;;26.39;28.70
60019;BME280;45870;42.528;26.740;2023-04-25T04:09:53;98916.84;;;25.69;29.42
60019;BME280;45870;42.528;26.740;2023-04-25T04:12:19;98910.00;;;27.54;27.30
60019;BME280;45870;42.528;26.740;2023-04-25T04:14:45;98916.97;;;29.60;24.49
60019;BME280;45870;42.528;26.740;2023-04-25T04:17:10;98911.41;;;30.74;23.18
60019;BME280;45870;42.528;26.740;2023-04-25T04:19:36;98914.69;;;30.90;22.64
60019;BME280;45870;42.528;26.740;2023-04-25T04:22:02;98914.75;;;31.66;22.11
60019;BME280;45870;42.528;26.740;2023-04-25T04:24:27;98920.88;;;29.85;24.43
60019;BME280;45870;42.528;26.740;2023-04-25T04:26:53;98926.72;;;29.77;24.65
60019;BME280;45870;42.528;26.740;2023-04-25T04:29:19;98927.19;;;31.93;22.48
60019;BME280;45870;42.528;26.740;2023-04-25T04:31:50;98915.75;;;32.69;21.50
60019;BME280;45870;42.528;26.740;2023-04-25T04:34:19;98849.06;;;29.61;24.17
60019;BME280;45870;42.528;26.740;2023-04-25T04:36:45;98917.47;;;25.62;30.33
60019;BME280;45870;42.528;26.740;2023-04-25T04:39:12;98914.94;;;22.63;36.53
60019;BME280;45870;42.528;26.740;2023-04-25T04:41:38;98893.63;;;21.16;38.34
60019;BME280;45870;42.528;26.740;2023-04-25T04:44:04;98915.00;;;19.92;43.39
60019;BME280;45870;42.528;26.740;2023-04-25T04:46:32;98908.06;;;18.56;45.29
60019;BME280;45870;42.528;26.740;2023-04-25T04:49:04;98908.16;;;17.45;51.51
60019;BME280;45870;42.528;26.740;2023-04-25T04:51:30;98909.66;;;16.63;52.58
60019;BME280;45870;42.528;26.740;2023-04-25T04:53:56;98915.88;;;16.40;53.34
60019;BME280;45870;42.528;26.740;2023-04-25T04:56:24;98915.25;;;16.72;53.24
60019;BME280;45870;42.528;26.740;2023-04-25T04:58:51;98907.66;;;18.22;48.63
60019;BME280;45870;42.528;26.740;2023-04-25T05:01:17;98896.56;;;17.54;49.08
60019;BME280;45870;42.528;26.740;2023-04-25T05:03:43;98905.06;;;18.93;45.61
60019;BME280;45870;42.528;26.740;2023-04-25T05:06:09;98896.94;;;20.70;41.31
60019;BME280;45870;42.528;26.740;2023-04-25T05:08:34;98903.63;;;20.29;42.30
60019;BME280;45870;42.528;26.740;2023-04-25T05:11:00;98884.75;;;22.55;38.07
60019;BME280;45870;42.528;26.740;2023-04-25T05:13:26;98896.94;;;24.71;34.81
60019;BME280;45870;42.528;26.740;2023-04-25T05:15:52;98891.06;;;24.73;33.77
60019;BME280;45870;42.528;26.740;2023-04-25T05:18:17;98890.34;;;21.91;40.47
60019;BME280;45870;42.528;26.740;2023-04-25T05:20:43;98890.72;;;21.47;41.40
60019;BME280;45870;42.528;26.740;2023-04-25T05:23:08;98895.41;;;21.29;40.92
60019;BME280;45870;42.528;26.740;2023-04-25T05:25:34;98891.22;;;21.40;40.51
60019;BME280;45870;42.528;26.740;2023-04-25T05:28:00;98890.25;;;22.55;38.86
60019;BME280;45870;42.528;26.740;2023-04-25T05:30:25;98888.97;;;23.02;37.66
60019;BME280;45870;42.528;26.740;2023-04-25T05:32:51;98882.34;;;23.89;35.58
60019;BME280;45870;42.528;26.740;2023-04-25T05:35:17;98889.84;;;23.56;36.31
60019;BME280;45870;42.528;26.740;2023-04-25T05:37:42;98887.66;;;23.95;36.21
60019;BME280;45870;42.528;26.740;2023-04-25T05:40:08;98887.69;;;25.99;31.60
60019;BME280;45870;42.528;26.740;2023-04-25T05:42:34;98883.19;;;25.79;33.27
60019;BME280;45870;42.528;26.740;2023-04-25T05:45:03;98878.53;;;28.08;29.06
60019;BME280;45870;42.528;26.740;2023-04-25T05:47:29;98867.59;;;24.67;33.39
60019;BME280;45870;42.528;26.740;2023-04-25T05:49:55;98873.94;;;27.16;31.18
60019;BME280;45870;42.528;26.740;2023-04-25T05:52:20;98879.81;;;26.01;32.42
60019;BME280;45870;42.528;26.740;2023-04-25T05:54:46;98886.44;;;25.69;32.94
60019;BME280;45870;42.528;26.740;2023-04-25T05:57:21;98881.47;;;26.33;32.10
60019;BME280;45870;42.528;26.740;2023-04-25T05:59:47;98874.28;;;26.64;31.05
60019;BME280;45870;42.528;26.740;2023-04-25T06:02:13;98884.47;;;27.10;30.48
60019;BME280;45870;42.528;26.740;2023-04-25T06:04:38;98721.75;;;24.53;33.14
60019;BME280;45870;42.528;26.740;2023-04-25T06:07:04;98869.19;;;24.07;36.31
60019;BME280;45870;42.528;26.740;2023-04-25T06:09:29;98883.72;;;26.28;32.94
60019;BME280;45870;42.528;26.740;2023-04-25T06:11:55;98876.19;;;25.02;34.44
60019;BME280;45870;42.528;26.740;2023-04-25T06:14:21;98877.13;;;23.64;36.97
60019;BME280;45870;42.528;26.740;2023-04-25T06:16:46;98817.72;;;23.75;36.84
60019;BME280;45870;42.528;26.740;2023-04-25T06:19:12;98880.69;;;24.82;36.11
60019;BME280;45870;42.528;26.740;2023-04-25T06:21:38;98873.53;;;25.45;35.21
60019;BME280;45870;42.528;26.740;2023-04-25T06:24:03;98886.19;;;25.06;35.04
60019;BME280;45870;42.528;26.740;2023-04-25T06:26:29;98883.59;;;23.47;37.66
60019;BME280;45870;42.528;26.740;2023-04-25T06:28:55;98887.44;;;22.93;39.18
60019;BME280;45870;42.528;26.740;2023-04-25T06:31:20;98881.72;;;22.48;40.20
60019;BME280;45870;42.528;26.740;2023-04-25T06:33:46;98885.97;;;21.81;40.56
60019;BME280;45870;42.528;26.740;2023-04-25T06:36:13;98883.91;;;22.83;38.60
60019;BME280;45870;42.528;26.740;2023-04-25T06:38:39;98818.69;;;23.25;37.88
60019;BME280;45870;42.528;26.740;2023-04-25T06:41:05;98868.75;;;26.01;33.13
60019;BME280;45870;42.528;26.740;2023-04-25T06:43:31;98874.78;;;24.56;35.10
60019;BME280;45870;42.528;26.740;2023-04-25T06:45:59;98875.09;;;26.02;32.79
60019;BME280;45870;42.528;26.740;2023-04-25T06:48:27;98884.94;;;21.31;41.91
60019;BME280;45870;42.528;26.740;2023-04-25T06:50:52;98873.53;;;21.75;41.57
60019;BME280;45870;42.528;26.740;2023-04-25T06:53:18;98877.28;;;24.61;35.78
60019;BME280;45870;42.528;26.740;2023-04-25T06:55:44;98868.06;;;22.30;40.14
60019;BME280;45870;42.528;26.740;2023-04-25T06:58:10;98881.66;;;23.80;37.40
60019;BME280;45870;42.528;26.740;2023-04-25T07:00:36;98881.66;;;23.48;38.87
60019;BME280;45870;42.528;26.740;2023-04-25T07:03:01;98891.25;;;23.62;39.52
60019;BME280;45870;42.528;26.740;2023-04-25T07:05:27;98884.38;;;23.68;38.90
60019;BME280;45870;42.528;26.740;2023-04-25T07:07:53;98883.97;;;22.08;41.58
60019;BME280;45870;42.528;26.740;2023-04-25T07:10:18;98876.25;;;22.01;41.33
60019;BME280;45870;42.528;26.740;2023-04-25T07:12:45;98888.16;;;23.22;39.34
60019;BME280;45870;42.528;26.740;2023-04-25T07:15:11;98878.13;;;23.92;37.47
60019;BME280;45870;42.528;26.740;2023-04-25T07:17:37;98875.44;;;23.18;39.40
60019;BME280;45870;42.528;26.740;2023-04-25T07:20:03;98869.81;;;21.80;42.44
60019;BME280;45870;42.528;26.740;2023-04-25T07:22:29;98881.69;;;22.10;41.78
60019;BME280;45870;42.528;26.740;2023-04-25T07:24:55;98833.88;;;22.40;41.59
60019;BME280;45870;42.528;26.740;2023-04-25T07:27:21;98875.88;;;22.20;41.30
60019;BME280;45870;42.528;26.740;2023-04-25T07:29:47;98886.22;;;23.44;39.93
60019;BME280;45870;42.528;26.740;2023-04-25T07:32:12;98883.66;;;23.38;39.66
60019;BME280;45870;42.528;26.740;2023-04-25T07:34:39;98867.19;;;23.51;40.68
60019;BME280;45870;42.528;26.740;2023-04-25T07:37:05;98871.50;;;22.10;42.82
60019;BME280;45870;42.528;26.740;2023-04-25T07:39:31;98867.50;;;23.16;41.27
60019;BME280;45870;42.528;26.740;2023-04-25T07:41:56;98868.97;;;24.97;37.25
60019;BME280;45870;42.528;26.740;2023-04-25T07:44:24;98801.13;;;25.83;34.71
60019;BME280;45870;42.528;26.740;2023-04-25T07:46:51;98857.75;;;25.46;34.99
60019;BME280;45870;42.528;26.740;2023-04-25T07:49:16;98866.09;;;26.36;33.33
60019;BME280;45870;42.528;26.740;2023-04-25T07:51:42;98864.50;;;25.32;35.38
60019;BME280;45870;42.528;26.740;2023-04-25T07:54:14;98863.03;;;24.47;39.39
60019;BME280;45870;42.528;26.740;2023-04-25T07:56:40;98859.66;;;26.16;35.16
60019;BME280;45870;42.528;26.740;2023-04-25T07:59:06;98864.44;;;25.45;35.27
60019;BME280;45870;42.528;26.740;2023-04-25T08:01:33;98861.03;;;28.26;30.21
60019;BME280;45870;42.528;26.740;2023-04-25T08:03:59;98865.75;;;25.35;36.17
60019;BME280;45870;42.528;26.740;2023-04-25T08:06:25;98866.47;;;26.03;35.87
60019;BME280;45870;42.528;26.740;2023-04-25T08:08:51;98866.47;;;26.19;34.29
60019;BME280;45870;42.528;26.740;2023-04-25T08:11:16;98861.38;;;24.09;38.75
60019;BME280;45870;42.528;26.740;2023-04-25T08:13:42;98850.94;;;23.58;39.27
60019;BME280;45870;42.528;26.740;2023-04-25T08:16:08;98852.41;;;23.88;39.28
60019;BME280;45870;42.528;26.740;2023-04-25T08:18:34;98854.53;;;24.27;37.42
60019;BME280;45870;42.528;26.740;2023-04-25T08:20:59;98852.44;;;24.73;37.73
60019;BME280;45870;42.528;26.740;2023-04-25T08:23:25;98866.22;;;24.12;38.61
60019;BME280;45870;42.528;26.740;2023-04-25T08:25:51;98855.66;;;25.82;35.63
60019;BME280;45870;42.528;26.740;2023-04-25T08:28:16;98860.94;;;24.80;36.94
60019;BME280;45870;42.528;26.740;2023-04-25T08:30:42;98865.47;;;25.12;36.65
60019;BME280;45870;42.528;26.740;2023-04-25T08:33:07;98864.56;;;27.24;33.53
60019;BME280;45870;42.528;26.740;2023-04-25T08:35:33;98861.53;;;26.59;34.09
60019;BME280;45870;42.528;26.740;2023-04-25T08:37:59;98862.78;;;26.46;34.39
60019;BME280;45870;42.528;26.740;2023-04-25T08:40:27;98800.66;;;26.78;32.46
60019;BME280;45870;42.528;26.740;2023-04-25T08:42:57;98846.81;;;25.93;34.35
60019;BME280;45870;42.528;26.740;2023-04-25T08:45:22;98842.75;;;26.68;34.51
60019;BME280;45870;42.528;26.740;2023-04-25T08:47:51;98838.94;;;28.86;28.97
60019;BME280;45870;42.528;26.740;2023-04-25T08:50:18;98813.56;;;32.72;23.79
60019;BME280;45870;42.528;26.740;2023-04-25T08:52:47;98827.47;;;33.87;22.70
60019;BME280;45870;42.528;26.740;2023-04-25T08:55:13;98828.75;;;27.73;29.07
60019;BME280;45870;42.528;26.740;2023-04-25T08:57:41;98824.00;;;27.73;28.22
60019;BME280;45870;42.528;26.740;2023-04-25T09:00:09;98822.66;;;30.80;25.38
60019;BME280;45870;42.528;26.740;2023-04-25T09:02:37;98795.13;;;29.02;26.39
60019;BME280;45870;42.528;26.740;2023-04-25T09:05:04;98779.81;;;31.05;24.61
60019;BME280;45870;42.528;26.740;2023-04-25T09:07:32;98824.34;;;27.49;28.66
60019;BME280;45870;42.528;26.740;2023-04-25T09:09:58;98823.94;;;27.70;29.20
60019;BME280;45870;42.528;26.740;2023-04-25T09:12:27;98812.53;;;27.33;30.21
60019;BME280;45870;42.528;26.740;2023-04-25T09:15:04;98813.81;;;25.68;33.13
60019;BME280;45870;42.528;26.740;2023-04-25T09:17:30;98804.09;;;25.90;33.13
60019;BME280;45870;42.528;26.740;2023-04-25T09:20:12;98775.91;;;26.31;33.43
60019;BME280;45870;42.528;26.740;2023-04-25T09:22:38;98777.00;;;26.81;32.51
60019;BME280;45870;42.528;26.740;2023-04-25T09:25:09;98811.13;;;28.30;29.71
60019;BME280;45870;42.528;26.740;2023-04-25T09:27:35;98815.16;;;26.72;31.22
60019;BME280;45870;42.528;26.740;2023-04-25T09:30:01;98805.00;;;29.00;29.76
60019;BME280;45870;42.528;26.740;2023-04-25T09:32:28;98784.84;;;26.79;29.75
60019;BME280;45870;42.528;26.740;2023-04-25T09:34:56;98804.00;;;26.02;32.29
60019;BME280;45870;42.528;26.740;2023-04-25T09:37:26;98796.28;;;26.43;33.55
60019;BME280;45870;42.528;26.740;2023-04-25T09:40:00;98795.31;;;29.87;28.08
60019;BME280;45870;42.528;26.740;2023-04-25T09:42:29;98792.59;;;28.38;30.12
60019;BME280;45870;42.528;26.740;2023-04-25T09:44:57;98789.34;;;28.58;28.05
60019;BME280;45870;42.528;26.740;2023-04-25T09:47:25;98783.72;;;27.79;30.47
60019;BME280;45870;42.528;26.740;2023-04-25T09:49:53;98779.91;;;28.37;30.35
60019;BME280;45870;42.528;26.740;2023-04-25T09:52:20;98737.38;;;29.55;28.00
60019;BME280;45870;42.528;26.740;2023-04-25T09:54:47;98781.41;;;29.50;28.74
60019;BME280;45870;42.528;26.740;2023-04-25T09:57:18;98776.47;;;30.75;27.08
60019;BME280;45870;42.528;26.740;2023-04-25T09:59:46;98775.16;;;28.63;30.12
60019;BME280;45870;42.528;26.740;2023-04-25T10:02:15;98766.34;;;28.32;30.60
60019;BME280;45870;42.528;26.740;2023-04-25T10:04:41;98759.75;;;29.69;26.61
60019;BME280;45870;42.528;26.740;2023-04-25T10:07:08;98748.88;;;27.59;32.08
60019;BME280;45870;42.528;26.740;2023-04-25T10:09:37;98754.13;;;26.30;32.97
60019;BME280;45870;42.528;26.740;2023-04-25T10:12:05;98743.19;;;26.72;32.14
60019;BME280;45870;42.528;26.740;2023-04-25T10:14:31;98736.56;;;27.79;30.56
60019;BME280;45870;42.528;26.740;2023-04-25T10:16:58;98738.50;;;28.24;28.53
60019;BME280;45870;42.528;26.740;2023-04-25T10:19:25;98737.94;;;28.15;28.47
60019;BME280;45870;42.528;26.740;2023-04-25T10:21:58;98732.31;;;27.63;30.19
60019;BME280;45870;42.528;26.740;2023-04-25T10:24:27;98732.59;;;27.80;31.75
60019;BME280;45870;42.528;26.740;2023-04-25T10:26:53;98735.28;;;27.51;31.65
60019;BME280;45870;42.528;26.740;2023-04-25T10:29:26;98719.94;;;30.09;28.17
60019;BME280;45870;42.528;26.740;2023-04-25T10:31:51;98726.72;;;27.82;30.40
60019;BME280;45870;42.528;26.740;2023-04-25T10:34:17;98736.13;;;25.73;36.25
60019;BME280;45870;42.528;26.740;2023-04-25T10:36:49;98725.81;;;26.37;33.29
60019;BME280;45870;42.528;26.740;2023-04-25T10:39:23;98725.53;;;26.42;32.76
60019;BME280;45870;42.528;26.740;2023-04-25T10:41:57;98720.69;;;27.35;32.23
60019;BME280;45870;42.528;26.740;2023-04-25T10:44:28;98724.53;;;28.17;31.79
60019;BME280;45870;42.528;26.740;2023-04-25T10:46:56;98723.25;;;29.01;29.46
60019;BME280;45870;42.528;26.740;2023-04-25T10:49:31;98719.19;;;26.60;33.27
60019;BME280;45870;42.528;26.740;2023-04-25T10:52:17;98716.16;;;25.05;35.28
60019;BME280;45870;42.528;26.740;2023-04-25T10:54:47;98722.38;;;26.97;32.56
60019;BME280;45870;42.528;26.740;2023-04-25T10:57:42;98717.91;;;26.93;32.80
60019;BME280;45870;42.528;26.740;2023-04-25T11:00:16;98711.84;;;27.48;30.79
60019;BME280;45870;42.528;26.740;2023-04-25T11:02:52;98705.78;;;25.30;36.66
60019;BME280;45870;42.528;26.740;2023-04-25T11:05:35;98703.06;;;25.61;34.51
60019;BME280;45870;42.528;26.740;2023-04-25T11:08:02;98698.34;;;28.18;27.68
60019;BME280;45870;42.528;26.740;2023-04-25T11:10:30;98707.03;;;28.43;30.74
60019;BME280;45870;42.528;26.740;2023-04-25T11:12:57;98656.28;;;27.18;30.64
60019;BME280;45870;42.528;26.740;2023-04-25T11:15:24;98706.97;;;26.61;29.78
60019;BME280;45870;42.528;26.740;2023-04-25T11:17:55;98698.44;;;27.99;29.28
60019;BME280;45870;42.528;26.740;2023-04-25T11:20:21;98704.97;;;26.08;32.35
60019;BME280;45870;42.528;26.740;2023-04-25T11:22:47;98697.34;;;24.95;34.11
60019;BME280;45870;42.528;26.740;2023-04-25T11:25:15;98697.31;;;27.13;31.97
60019;BME280;45870;42.528;26.740;2023-04-25T11:27:51;98692.78;;;28.18;30.90
60019;BME280;45870;42.528;26.740;2023-04-25T11:30:17;98673.53;;;26.51;32.67
60019;BME280;45870;42.528;26.740;2023-04-25T11:32:43;98690.06;;;27.96;30.78
60019;BME280;45870;42.528;26.740;2023-04-25T11:35:11;98680.69;;;28.60;30.59
60019;BME280;45870;42.528;26.740;2023-04-25T11:37:39;98638.47;;;27.91;29.66
60019;BME280;45870;42.528;26.740;2023-04-25T11:40:06;98663.69;;;25.99;32.82
60019;BME280;45870;42.528;26.740;2023-04-25T11:42:32;98664.84;;;27.78;30.83
60019;BME280;45870;42.528;26.740;2023-04-25T11:44:59;98660.56;;;27.84;28.37
60019;BME280;45870;42.528;26.740;2023-04-25T11:47:32;98660.59;;;28.10;28.23
60019;BME280;45870;42.528;26.740;2023-04-25T11:50:03;98649.75;;;29.32;27.20
60019;BME280;45870;42.528;26.740;2023-04-25T11:52:39;98637.81;;;29.75;27.61
60019;BME280;45870;42.528;26.740;2023-04-25T11:55:07;98630.81;;;29.99;27.69
60019;BME280;45870;42.528;26.740;2023-04-25T11:57:33;98625.25;;;29.95;30.30
60019;BME280;45870;42.528;26.740;2023-04-25T12:00:17;98615.81;;;29.12;27.37
60019;BME280;45870;42.528;26.740;2023-04-25T12:02:51;98616.50;;;28.05;28.49
60019;BME280;45870;42.528;26.740;2023-04-25T12:05:18;98602.97;;;28.00;29.03
60019;BME280;45870;42.528;26.740;2023-04-25T12:07:46;98562.63;;;27.27;30.15
60019;BME280;45870;42.528;26.740;2023-04-25T12:10:13;98601.75;;;28.61;27.95
60019;BME280;45870;42.528;26.740;2023-04-25T12:12:45;98597.19;;;29.63;27.38
60019;BME280;45870;42.528;26.740;2023-04-25T12:17:44;98596.69;;;27.77;30.97
60019;BME280;45870;42.528;26.740;2023-04-25T12:20:12;98589.75;;;27.41;31.89
60019;BME280;45870;42.528;26.740;2023-04-25T12:22:41;98578.56;;;27.57;30.31
60019;BME280;45870;42.528;26.740;2023-04-25T12:27:54;98578.34;;;27.69;30.05
60019;BME280;45870;42.528;26.740;2023-04-25T12:30:20;98582.50;;;27.82;29.66
60019;BME280;45870;42.528;26.740;2023-04-25T12:32:47;98590.44;;;27.84;30.23
60019;BME280;45870;42.528;26.740;2023-04-25T12:35:13;98579.19;;;27.24;30.42
60019;BME280;45870;42.528;26.740;2023-04-25T12:37:38;98591.31;;;26.32;33.32
60019;BME280;45870;42.528;26.740;2023-04-25T12:40:04;98592.13;;;27.39;30.94
60019;BME280;45870;42.528;26.740;2023-04-25T12:42:31;98596.22;;;28.27;30.01
60019;BME280;45870;42.528;26.740;2023-04-25T12:44:57;98593.03;;;28.29;29.19
60019;BME280;45870;42.528;26.740;2023-04-25T12:47:23;98597.53;;;29.55;27.12
60019;BME280;45870;42.528;26.740;2023-04-25T12:49:48;98591.06;;;28.63;27.21
60019;BME280;45870;42.528;26.740;2023-04-25T12:52:14;98596.38;;;28.42;28.99
60019;BME280;45870;42.528;26.740;2023-04-25T12:54:39;98609.19;;;28.50;29.37